sensor_id;sensor_type;location;lat;lon;timestamp;P1;durP1;ratioP1;P2;durP2;ratioP2
49015;SDS011;34830;44.064;12.566;2023-06-05T00:02:23;9.50;;;3.92;;
49015;SDS011;34830;44.064;12.566;2023-06-05T00:04:49;5.85;;;4.03;;
49015;SDS011;34830;44.064;12.566;2023-06-05T00:07:16;9.52;;;4.25;;
49015;SDS011;34830;44.064;12.566;2023-06-05T00:09:42;9.25;;;5.10;;
49015;SDS011;34830;44.064;12.566;2023-06-05T00:12:08;7.75;;;4.32;;
49015;SDS011;34830;44.064;12.566;2023-06-05T00:14:34;11.02;;;4.15;;
49015;SDS011;34830;44.064;12.566;2023-06-05T00:17:01;8.45;;;3.83;;
49015;SDS011;34830;44.064;12.566;2023-06-05T00:19:27;6.63;;;4.20;;
49015;SDS011;34830;44.064;12.566;2023-06-05T00:21:53;5.90;;;3.80;;
49015;SDS011;34830;44.064;12.566;2023-06-05T00:24:20;9.57;;;4.00;;
49015;SDS011;34830;44.064;12.566;2023-06-05T00:26:46;9.45;;;4.38;;
49015;SDS011;34830;44.064;12.566;2023-06-05T00:29:12;12.60;;;4.40;;
49015;SDS011;34830;44.064;12.566;2023-06-05T00:31:39;9.50;;;4.43;;
49015;SDS011;34830;44.064;12.566;2023-06-05T00:34:05;6.47;;;3.53;;
49015;SDS011;34830;44.064;12.566;2023-06-05T00:36:31;11.73;;;3.15;;
49015;SDS011;34830;44.064;12.566;2023-06-05T00:38:58;12.57;;;3.50;;
49015;SDS011;34830;44.064;12.566;2023-06-05T00:41:24;7.78;;;3.17;;
49015;SDS011;34830;44.064;12.566;2023-06-05T00:43:51;8.10;;;3.85;;
49015;SDS011;34830;44.064;12.566;2023-06-05T00:46:17;6.70;;;3.20;;
49015;SDS011;34830;44.064;12.566;2023-06-05T00:48:45;8.88;;;3.75;;
49015;SDS011;34830;44.064;12.566;2023-06-05T00:51:14;6.10;;;3.28;;
49015;SDS011;34830;44.064;12.566;2023-06-05T00:53:41;8.40;;;3.35;;
49015;SDS011;34830;44.064;12.566;2023-06-05T00:56:10;6.50;;;3.03;;
49015;SDS011;34830;44.064;12.566;2023-06-05T00:58:36;5.18;;;3.35;;
49015;SDS011;34830;44.064;12.566;2023-06-05T01:01:02;7.47;;;3.17;;
49015;SDS011;34830;44.064;12.566;2023-06-05T01:03:31;6.53;;;3.55;;
49015;SDS011;34830;44.064;12.566;2023-06-05T01:05:59;8.57;;;3.95;;
49015;SDS011;34830;44.064;12.566;2023-06-05T01:08:35;6.75;;;3.10;;
49015;SDS011;34830;44.064;12.566;2023-06-05T01:11:09;7.80;;;3.22;;
49015;SDS011;34830;44.064;12.566;2023-06-05T01:14:11;4.28;;;2.75;;
49015;SDS011;34830;44.064;12.566;2023-06-05T01:16:47;7.70;;;2.85;;
49015;SDS011;34830;44.064;12.566;2023-06-05T01:19:14;5.93;;;3.45;;
49015;SDS011;34830;44.064;12.566;2023-06-05T01:21:41;8.07;;;3.55;;
49015;SDS011;34830;44.064;12.566;2023-06-05T01:24:07;5.55;;;3.10;;
49015;SDS011;34830;44.064;12.566;2023-06-05T01:26:36;7.88;;;3.67;;
49015;SDS011;34830;44.064;12.566;2023-06-05T01:29:10;11.20;;;4.00;;
49015;SDS011;34830;44.064;12.566;2023-06-05T01:31:37;6.63;;;3.22;;
49015;SDS011;34830;44.064;12.566;2023-06-05T01:34:05;6.20;;;3.15;;
49015;SDS011;34830;44.064;12.566;2023-06-05T01:36:36;8.13;;;3.22;;
49015;SDS011;34830;44.064;12.566;2023-06-05T01:39:02;10.50;;;3.38;;
49015;SDS011;34830;44.064;12.566;2023-06-05T01:41:30;5.47;;;3.05;;
49015;SDS011;34830;44.064;12.566;2023-06-05T01:43:56;8.63;;;3.13;;
49015;SDS011;34830;44.064;12.566;2023-06-05T01:46:23;6.90;;;3.92;;
49015;SDS011;34830;44.064;12.566;2023-06-05T01:48:49;6.43;;;3.15;;
49015;SDS011;34830;44.064;12.566;2023-06-05T01:51:17;8.60;;;3.72;;
49015;SDS011;34830;44.064;12.566;2023-06-05T01:53:43;5.97;;;3.30;;
49015;SDS011;34830;44.064;12.566;2023-06-05T01:56:09;7.07;;;3.15;;
49015;SDS011;34830;44.064;12.566;2023-06-05T01:58:36;8.98;;;3.47;;
49015;SDS011;34830;44.064;12.566;2023-06-05T02:01:02;6.45;;;3.67;;
49015;SDS011;34830;44.064;12.566;2023-06-05T02:03:29;4.85;;;3.42;;
49015;SDS011;34830;44.064;12.566;2023-06-05T02:05:55;7.10;;;3.92;;
49015;SDS011;34830;44.064;12.566;2023-06-05T02:08:22;8.65;;;3.53;;
49015;SDS011;34830;44.064;12.566;2023-06-05T02:10:48;5.80;;;3.08;;
49015;SDS011;34830;44.064;12.566;2023-06-05T02:13:15;10.55;;;3.00;;
49015;SDS011;34830;44.064;12.566;2023-06-05T02:15:41;5.07;;;3.40;;
49015;SDS011;34830;44.064;12.566;2023-06-05T02:18:08;5.45;;;3.13;;
49015;SDS011;34830;44.064;12.566;2023-06-05T02:20:34;6.30;;;3.47;;
49015;SDS011;34830;44.064;12.566;2023-06-05T02:23:02;8.95;;;3.92;;
49015;SDS011;34830;44.064;12.566;2023-06-05T02:25:30;5.28;;;3.10;;
49015;SDS011;34830;44.064;12.566;2023-06-05T02:27:57;6.05;;;3.10;;
49015;SDS011;34830;44.064;12.566;2023-06-05T02:30:23;6.10;;;2.70;;
49015;SDS011;34830;44.064;12.566;2023-06-05T02:32:50;6.35;;;3.22;;
49015;SDS011;34830;44.064;12.566;2023-06-05T02:35:26;6.30;;;3.28;;
49015;SDS011;34830;44.064;12.566;2023-06-05T02:37:53;7.20;;;3.40;;
49015;SDS011;34830;44.064;12.566;2023-06-05T02:40:19;6.28;;;3.08;;
49015;SDS011;34830;44.064;12.566;2023-06-05T02:42:46;6.82;;;3.60;;
49015;SDS011;34830;44.064;12.566;2023-06-05T02:45:12;7.28;;;3.80;;
49015;SDS011;34830;44.064;12.566;2023-06-05T02:47:39;7.25;;;3.08;;
49015;SDS011;34830;44.064;12.566;2023-06-05T02:50:06;6.40;;;3.67;;
49015;SDS011;34830;44.064;12.566;2023-06-05T02:52:35;8.43;;;3.30;;
49015;SDS011;34830;44.064;12.566;2023-06-05T02:55:10;6.05;;;3.20;;
49015;SDS011;34830;44.064;12.566;2023-06-05T02:57:38;6.70;;;3.67;;
49015;SDS011;34830;44.064;12.566;2023-06-05T03:00:13;6.85;;;4.05;;
49015;SDS011;34830;44.064;12.566;2023-06-05T03:02:43;6.05;;;3.15;;
49015;SDS011;34830;44.064;12.566;2023-06-05T03:05:15;6.68;;;3.35;;
49015;SDS011;34830;44.064;12.566;2023-06-05T03:07:44;5.47;;;3.67;;
49015;SDS011;34830;44.064;12.566;2023-06-05T03:10:11;8.73;;;3.70;;
49015;SDS011;34830;44.064;12.566;2023-06-05T03:12:37;6.57;;;3.95;;
49015;SDS011;34830;44.064;12.566;2023-06-05T03:15:04;5.63;;;3.72;;
49015;SDS011;34830;44.064;12.566;2023-06-05T03:17:31;6.70;;;3.55;;
49015;SDS011;34830;44.064;12.566;2023-06-05T03:19:57;4.75;;;3.28;;
49015;SDS011;34830;44.064;12.566;2023-06-05T03:22:23;6.45;;;3.35;;
49015;SDS011;34830;44.064;12.566;2023-06-05T03:24:50;6.00;;;3.40;;
49015;SDS011;34830;44.064;12.566;2023-06-05T03:27:17;5.00;;;3.47;;
49015;SDS011;34830;44.064;12.566;2023-06-05T03:29:44;7.55;;;3.70;;
49015;SDS011;34830;44.064;12.566;2023-06-05T03:32:10;6.05;;;3.67;;
49015;SDS011;34830;44.064;12.566;2023-06-05T03:34:36;6.35;;;3.88;;
49015;SDS011;34830;44.064;12.566;2023-06-05T03:37:04;5.47;;;3.40;;
49015;SDS011;34830;44.064;12.566;2023-06-05T03:39:30;6.20;;;3.90;;
49015;SDS011;34830;44.064;12.566;2023-06-05T03:41:58;6.47;;;3.78;;
49015;SDS011;34830;44.064;12.566;2023-06-05T03:44:27;6.45;;;3.88;;
49015;SDS011;34830;44.064;12.566;2023-06-05T03:46:53;7.80;;;4.32;;
49015;SDS011;34830;44.064;12.566;2023-06-05T03:49:20;6.53;;;4.07;;
49015;SDS011;34830;44.064;12.566;2023-06-05T03:51:49;6.43;;;3.63;;
49015;SDS011;34830;44.064;12.566;2023-06-05T03:54:16;7.40;;;4.00;;
49015;SDS011;34830;44.064;12.566;2023-06-05T03:56:42;6.70;;;4.38;;
49015;SDS011;34830;44.064;12.566;2023-06-05T03:59:15;5.93;;;3.22;;
49015;SDS011;34830;44.064;12.566;2023-06-05T04:01:47;5.07;;;3.40;;
49015;SDS011;34830;44.064;12.566;2023-06-05T04:04:14;8.95;;;4.22;;
49015;SDS011;34830;44.064;12.566;2023-06-05T04:06:40;8.73;;;4.30;;
49015;SDS011;34830;44.064;12.566;2023-06-05T04:09:07;6.35;;;4.07;;
49015;SDS011;34830;44.064;12.566;2023-06-05T04:11:41;8.35;;;3.65;;
49015;SDS011;34830;44.064;12.566;2023-06-05T04:14:09;7.15;;;3.90;;
49015;SDS011;34830;44.064;12.566;2023-06-05T04:16:36;6.32;;;4.25;;
49015;SDS011;34830;44.064;12.566;2023-06-05T04:19:10;5.45;;;3.75;;
49015;SDS011;34830;44.064;12.566;2023-06-05T04:21:38;9.00;;;3.83;;
49015;SDS011;34830;44.064;12.566;2023-06-05T04:24:06;6.20;;;4.40;;
49015;SDS011;34830;44.064;12.566;2023-06-05T04:26:34;10.63;;;5.25;;
49015;SDS011;34830;44.064;12.566;2023-06-05T04:29:04;8.23;;;4.18;;
49015;SDS011;34830;44.064;12.566;2023-06-05T04:31:34;5.72;;;3.60;;
49015;SDS011;34830;44.064;12.566;2023-06-05T04:34:00;6.38;;;4.00;;
49015;SDS011;34830;44.064;12.566;2023-06-05T04:36:28;7.03;;;3.67;;
49015;SDS011;34830;44.064;12.566;2023-06-05T04:38:54;7.35;;;3.42;;
49015;SDS011;34830;44.064;12.566;2023-06-05T04:41:20;7.85;;;4.00;;
49015;SDS011;34830;44.064;12.566;2023-06-05T04:43:48;6.93;;;3.53;;
49015;SDS011;34830;44.064;12.566;2023-06-05T04:46:15;7.05;;;3.80;;
49015;SDS011;34830;44.064;12.566;2023-06-05T04:48:41;7.13;;;3.75;;
49015;SDS011;34830;44.064;12.566;2023-06-05T04:51:09;7.82;;;3.60;;
49015;SDS011;34830;44.064;12.566;2023-06-05T04:53:35;7.35;;;3.90;;
49015;SDS011;34830;44.064;12.566;2023-06-05T04:56:02;5.85;;;3.60;;
49015;SDS011;34830;44.064;12.566;2023-06-05T04:58:32;5.32;;;4.50;;
49015;SDS011;34830;44.064;12.566;2023-06-05T05:00:58;10.35;;;4.53;;
49015;SDS011;34830;44.064;12.566;2023-06-05T05:03:31;10.65;;;3.88;;
49015;SDS011;34830;44.064;12.566;2023-06-05T05:05:58;10.00;;;5.47;;
49015;SDS011;34830;44.064;12.566;2023-06-05T05:08:24;8.93;;;4.07;;
49015;SDS011;34830;44.064;12.566;2023-06-05T05:10:50;8.25;;;4.63;;
49015;SDS011;34830;44.064;12.566;2023-06-05T05:13:17;8.93;;;4.65;;
49015;SDS011;34830;44.064;12.566;2023-06-05T05:15:43;7.40;;;4.28;;
49015;SDS011;34830;44.064;12.566;2023-06-05T05:18:09;8.13;;;4.43;;
49015;SDS011;34830;44.064;12.566;2023-06-05T05:20:35;7.75;;;4.25;;
49015;SDS011;34830;44.064;12.566;2023-06-05T05:23:03;11.23;;;4.57;;
49015;SDS011;34830;44.064;12.566;2023-06-05T05:25:29;7.90;;;4.63;;
49015;SDS011;34830;44.064;12.566;2023-06-05T05:27:56;8.68;;;4.53;;
49015;SDS011;34830;44.064;12.566;2023-06-05T05:30:22;9.60;;;4.15;;
49015;SDS011;34830;44.064;12.566;2023-06-05T05:32:48;9.23;;;5.05;;
49015;SDS011;34830;44.064;12.566;2023-06-05T05:35:16;12.50;;;5.05;;
49015;SDS011;34830;44.064;12.566;2023-06-05T05:37:42;13.40;;;5.47;;
49015;SDS011;34830;44.064;12.566;2023-06-05T05:40:09;9.10;;;5.20;;
49015;SDS011;34830;44.064;12.566;2023-06-05T05:42:37;14.27;;;5.97;;
49015;SDS011;34830;44.064;12.566;2023-06-05T05:45:03;7.57;;;4.90;;
49015;SDS011;34830;44.064;12.566;2023-06-05T05:47:29;14.55;;;5.40;;
49015;SDS011;34830;44.064;12.566;2023-06-05T05:49:55;10.52;;;5.85;;
49015;SDS011;34830;44.064;12.566;2023-06-05T05:52:21;12.65;;;6.07;;
49015;SDS011;34830;44.064;12.566;2023-06-05T05:54:48;12.80;;;6.85;;
49015;SDS011;34830;44.064;12.566;2023-06-05T05:57:14;11.23;;;6.43;;
49015;SDS011;34830;44.064;12.566;2023-06-05T05:59:40;9.80;;;5.55;;
49015;SDS011;34830;44.064;12.566;2023-06-05T06:02:11;12.80;;;5.65;;
49015;SDS011;34830;44.064;12.566;2023-06-05T06:04:38;13.27;;;6.07;;
49015;SDS011;34830;44.064;12.566;2023-06-05T06:07:04;11.10;;;5.63;;
49015;SDS011;34830;44.064;12.566;2023-06-05T06:09:31;12.18;;;6.22;;
49015;SDS011;34830;44.064;12.566;2023-06-05T06:11:58;12.70;;;5.95;;
49015;SDS011;34830;44.064;12.566;2023-06-05T06:14:28;12.70;;;6.13;;
49015;SDS011;34830;44.064;12.566;2023-06-05T06:16:54;10.82;;;5.47;;
49015;SDS011;34830;44.064;12.566;2023-06-05T06:19:22;9.38;;;5.43;;
49015;SDS011;34830;44.064;12.566;2023-06-05T06:21:49;10.35;;;5.60;;
49015;SDS011;34830;44.064;12.566;2023-06-05T06:24:18;7.88;;;4.82;;
49015;SDS011;34830;44.064;12.566;2023-06-05T06:26:48;8.05;;;5.18;;
49015;SDS011;34830;44.064;12.566;2023-06-05T06:29:17;12.63;;;4.95;;
49015;SDS011;34830;44.064;12.566;2023-06-05T06:31:44;6.05;;;4.60;;
49015;SDS011;34830;44.064;12.566;2023-06-05T06:34:10;13.02;;;5.15;;
49015;SDS011;34830;44.064;12.566;2023-06-05T06:36:37;14.15;;;4.65;;
49015;SDS011;34830;44.064;12.566;2023-06-05T06:39:09;28.92;;;6.68;;
49015;SDS011;34830;44.064;12.566;2023-06-05T06:41:36;18.23;;;5.38;;
49015;SDS011;34830;44.064;12.566;2023-06-05T06:44:03;16.92;;;6.32;;
49015;SDS011;34830;44.064;12.566;2023-06-05T06:46:29;10.60;;;5.20;;
49015;SDS011;34830;44.064;12.566;2023-06-05T06:48:56;14.65;;;5.63;;
49015;SDS011;34830;44.064;12.566;2023-06-05T06:51:22;100.22;;;13.32;;
49015;SDS011;34830;44.064;12.566;2023-06-05T06:53:48;23.83;;;4.90;;
49015;SDS011;34830;44.064;12.566;2023-06-05T06:56:15;7.90;;;4.40;;
49015;SDS011;34830;44.064;12.566;2023-06-05T06:58:44;10.98;;;4.35;;
49015;SDS011;34830;44.064;12.566;2023-06-05T07:01:14;6.13;;;3.45;;
49015;SDS011;34830;44.064;12.566;2023-06-05T07:03:40;5.78;;;3.53;;
49015;SDS011;34830;44.064;12.566;2023-06-05T07:06:09;6.93;;;3.40;;
49015;SDS011;34830;44.064;12.566;2023-06-05T07:08:35;6.03;;;3.30;;
49015;SDS011;34830;44.064;12.566;2023-06-05T07:11:01;8.70;;;4.03;;
49015;SDS011;34830;44.064;12.566;2023-06-05T07:13:27;5.63;;;3.17;;
49015;SDS011;34830;44.064;12.566;2023-06-05T07:15:53;5.60;;;3.88;;
49015;SDS011;34830;44.064;12.566;2023-06-05T07:18:19;8.77;;;4.22;;
49015;SDS011;34830;44.064;12.566;2023-06-05T07:20:45;5.70;;;4.07;;
49015;SDS011;34830;44.064;12.566;2023-06-05T07:23:12;7.82;;;2.88;;
49015;SDS011;34830;44.064;12.566;2023-06-05T07:25:40;7.50;;;3.30;;
49015;SDS011;34830;44.064;12.566;2023-06-05T07:28:08;8.02;;;2.70;;
49015;SDS011;34830;44.064;12.566;2023-06-05T07:30:34;5.50;;;2.10;;
49015;SDS011;34830;44.064;12.566;2023-06-05T07:33:01;3.97;;;2.28;;
49015;SDS011;34830;44.064;12.566;2023-06-05T07:35:27;4.10;;;2.60;;
49015;SDS011;34830;44.064;12.566;2023-06-05T07:37:53;4.70;;;3.03;;
49015;SDS011;34830;44.064;12.566;2023-06-05T07:40:19;8.20;;;3.03;;
49015;SDS011;34830;44.064;12.566;2023-06-05T07:42:46;5.38;;;2.33;;
49015;SDS011;34830;44.064;12.566;2023-06-05T07:45:12;5.35;;;2.45;;
49015;SDS011;34830;44.064;12.566;2023-06-05T07:47:38;3.78;;;2.75;;
49015;SDS011;34830;44.064;12.566;2023-06-05T07:50:04;6.80;;;2.45;;
49015;SDS011;34830;44.064;12.566;2023-06-05T07:52:32;8.70;;;3.95;;
49015;SDS011;34830;44.064;12.566;2023-06-05T07:54:58;9.50;;;3.25;;
49015;SDS011;34830;44.064;12.566;2023-06-05T07:57:25;7.05;;;3.30;;
49015;SDS011;34830;44.064;12.566;2023-06-05T07:59:51;4.82;;;3.47;;
49015;SDS011;34830;44.064;12.566;2023-06-05T08:02:19;6.35;;;3.28;;
49015;SDS011;34830;44.064;12.566;2023-06-05T08:04:46;5.90;;;2.90;;
49015;SDS011;34830;44.064;12.566;2023-06-05T08:07:12;5.20;;;2.83;;
49015;SDS011;34830;44.064;12.566;2023-06-05T08:09:38;4.68;;;2.45;;
49015;SDS011;34830;44.064;12.566;2023-06-05T08:12:25;6.20;;;2.80;;
49015;SDS011;34830;44.064;12.566;2023-06-05T08:14:51;4.75;;;1.92;;
49015;SDS011;34830;44.064;12.566;2023-06-05T08:17:17;6.78;;;2.22;;
49015;SDS011;34830;44.064;12.566;2023-06-05T08:19:43;4.00;;;1.70;;
49015;SDS011;34830;44.064;12.566;2023-06-05T08:22:09;16.75;;;3.33;;
49015;SDS011;34830;44.064;12.566;2023-06-05T08:24:36;4.22;;;1.80;;
49015;SDS011;34830;44.064;12.566;2023-06-05T08:27:02;6.47;;;4.95;;
49015;SDS011;34830;44.064;12.566;2023-06-05T08:29:29;3.65;;;1.45;;
49015;SDS011;34830;44.064;12.566;2023-06-05T08:31:55;3.58;;;1.55;;
49015;SDS011;34830;44.064;12.566;2023-06-05T08:34:21;4.45;;;2.20;;
49015;SDS011;34830;44.064;12.566;2023-06-05T08:36:48;4.13;;;2.03;;
49015;SDS011;34830;44.064;12.566;2023-06-05T08:39:14;3.10;;;1.55;;
49015;SDS011;34830;44.064;12.566;2023-06-05T08:41:40;3.72;;;1.58;;
49015;SDS011;34830;44.064;12.566;2023-06-05T08:44:10;3.38;;;1.67;;
49015;SDS011;34830;44.064;12.566;2023-06-05T08:46:37;3.65;;;1.90;;
49015;SDS011;34830;44.064;12.566;2023-06-05T08:49:07;4.95;;;1.80;;
49015;SDS011;34830;44.064;12.566;2023-06-05T08:51:35;5.20;;;1.67;;
49015;SDS011;34830;44.064;12.566;2023-06-05T08:54:02;6.78;;;2.85;;
49015;SDS011;34830;44.064;12.566;2023-06-05T08:56:38;6.90;;;2.30;;
49015;SDS011;34830;44.064;12.566;2023-06-05T08:59:08;4.30;;;2.08;;
49015;SDS011;34830;44.064;12.566;2023-06-05T09:01:36;3.92;;;1.98;;
49015;SDS011;34830;44.064;12.566;2023-06-05T09:04:03;4.38;;;2.35;;
49015;SDS011;34830;44.064;12.566;2023-06-05T09:06:29;3.47;;;1.88;;
49015;SDS011;34830;44.064;12.566;2023-06-05T09:08:55;7.65;;;2.85;;
49015;SDS011;34830;44.064;12.566;2023-06-05T09:13:48;5.70;;;2.67;;
49015;SDS011;34830;44.064;12.566;2023-06-05T09:16:15;4.03;;;2.22;;
49015;SDS011;34830;44.064;12.566;2023-06-05T09:18:54;5.95;;;3.00;;
49015;SDS011;34830;44.064;12.566;2023-06-05T09:21:22;7.60;;;3.25;;
49015;SDS011;34830;44.064;12.566;2023-06-05T09:26:49;9.38;;;2.92;;
49015;SDS011;34830;44.064;12.566;2023-06-05T09:29:21;7.70;;;3.30;;
49015;SDS011;34830;44.064;12.566;2023-06-05T09:31:52;7.75;;;3.30;;
49015;SDS011;34830;44.064;12.566;2023-06-05T09:34:20;5.45;;;3.10;;
49015;SDS011;34830;44.064;12.566;2023-06-05T09:36:50;9.57;;;3.70;;
49015;SDS011;34830;44.064;12.566;2023-06-05T09:39:16;7.22;;;3.35;;
49015;SDS011;34830;44.064;12.566;2023-06-05T09:41:44;6.90;;;3.03;;
49015;SDS011;34830;44.064;12.566;2023-06-05T09:44:11;5.95;;;3.15;;
49015;SDS011;34830;44.064;12.566;2023-06-05T09:46:57;7.20;;;3.47;;
49015;SDS011;34830;44.064;12.566;2023-06-05T09:49:31;8.40;;;3.60;;
49015;SDS011;34830;44.064;12.566;2023-06-05T09:52:00;6.00;;;3.53;;
49015;SDS011;34830;44.064;12.566;2023-06-05T09:54:28;7.88;;;3.80;;
49015;SDS011;34830;44.064;12.566;2023-06-05T09:56:56;6.25;;;4.00;;
49015;SDS011;34830;44.064;12.566;2023-06-05T09:59:28;7.55;;;4.32;;
49015;SDS011;34830;44.064;12.566;2023-06-05T10:02:07;6.75;;;4.50;;
49015;SDS011;34830;44.064;12.566;2023-06-05T10:04:37;6.55;;;4.00;;
49015;SDS011;34830;44.064;12.566;2023-06-05T10:07:11;12.32;;;6.72;;
49015;SDS011;34830;44.064;12.566;2023-06-05T10:09:38;6.70;;;4.45;;
49015;SDS011;34830;44.064;12.566;2023-06-05T10:12:05;6.85;;;4.57;;
49015;SDS011;34830;44.064;12.566;2023-06-05T10:14:36;5.32;;;4.28;;
49015;SDS011;34830;44.064;12.566;2023-06-05T10:17:04;6.28;;;3.72;;
49015;SDS011;34830;44.064;12.566;2023-06-05T10:19:30;8.82;;;3.67;;
49015;SDS011;34830;44.064;12.566;2023-06-05T10:21:56;5.78;;;3.22;;
49015;SDS011;34830;44.064;12.566;2023-06-05T10:24:27;6.95;;;3.83;;
49015;SDS011;34830;44.064;12.566;2023-06-05T10:32:17;8.38;;;3.72;;
49015;SDS011;34830;44.064;12.566;2023-06-05T10:40:32;7.70;;;3.25;;
49015;SDS011;34830;44.064;12.566;2023-06-05T10:45:53;6.82;;;3.35;;
49015;SDS011;34830;44.064;12.566;2023-06-05T10:48:20;5.60;;;3.72;;
49015;SDS011;34830;44.064;12.566;2023-06-05T10:50:46;7.88;;;4.10;;
49015;SDS011;34830;44.064;12.566;2023-06-05T10:56:08;9.95;;;4.28;;
49015;SDS011;34830;44.064;12.566;2023-06-05T10:58:34;7.25;;;3.90;;
49015;SDS011;34830;44.064;12.566;2023-06-05T11:01:20;13.32;;;3.78;;
49015;SDS011;34830;44.064;12.566;2023-06-05T11:03:53;5.47;;;3.95;;
49015;SDS011;34830;44.064;12.566;2023-06-05T11:06:19;7.75;;;3.92;;
49015;SDS011;34830;44.064;12.566;2023-06-05T11:17:28;6.18;;;3.05;;
49015;SDS011;34830;44.064;12.566;2023-06-05T11:19:56;5.15;;;3.75;;
49015;SDS011;34830;44.064;12.566;2023-06-05T11:22:22;4.63;;;3.20;;
49015;SDS011;34830;44.064;12.566;2023-06-05T11:27:43;6.30;;;4.22;;
49015;SDS011;34830;44.064;12.566;2023-06-05T11:30:17;7.28;;;4.30;;
49015;SDS011;34830;44.064;12.566;2023-06-05T11:32:44;7.60;;;3.17;;
49015;SDS011;34830;44.064;12.566;2023-06-05T11:35:10;5.53;;;3.53;;
49015;SDS011;34830;44.064;12.566;2023-06-05T11:37:39;5.90;;;3.22;;
49015;SDS011;34830;44.064;12.566;2023-06-05T11:40:06;5.40;;;3.50;;
49015;SDS011;34830;44.064;12.566;2023-06-05T11:42:38;5.85;;;3.35;;
49015;SDS011;34830;44.064;12.566;2023-06-05T11:45:11;3.97;;;2.60;;
49015;SDS011;34830;44.064;12.566;2023-06-05T11:47:38;5.60;;;3.10;;
49015;SDS011;34830;44.064;12.566;2023-06-05T11:52:35;5.22;;;2.90;;
49015;SDS011;34830;44.064;12.566;2023-06-05T11:57:40;4.10;;;2.65;;
49015;SDS011;34830;44.064;12.566;2023-06-05T12:00:08;4.70;;;3.20;;
49015;SDS011;34830;44.064;12.566;2023-06-05T12:02:37;4.32;;;2.90;;
49015;SDS011;34830;44.064;12.566;2023-06-05T12:05:09;6.05;;;3.50;;
49015;SDS011;34830;44.064;12.566;2023-06-05T12:07:35;7.13;;;3.05;;
49015;SDS011;34830;44.064;12.566;2023-06-05T12:10:06;4.53;;;2.75;;
49015;SDS011;34830;44.064;12.566;2023-06-05T12:12:34;6.57;;;2.63;;
49015;SDS011;34830;44.064;12.566;2023-06-05T12:15:13;5.57;;;2.70;;
49015;SDS011;34830;44.064;12.566;2023-06-05T12:17:49;4.65;;;3.08;;
49015;SDS011;34830;44.064;12.566;2023-06-05T12:20:19;5.78;;;2.78;;
49015;SDS011;34830;44.064;12.566;2023-06-05T12:22:45;4.55;;;2.50;;
49015;SDS011;34830;44.064;12.566;2023-06-05T12:25:18;4.40;;;2.60;;
49015;SDS011;34830;44.064;12.566;2023-06-05T12:27:45;6.82;;;3.05;;
49015;SDS011;34830;44.064;12.566;2023-06-05T12:30:15;5.85;;;2.85;;
49015;SDS011;34830;44.064;12.566;2023-06-05T12:32:44;4.38;;;2.80;;
49015;SDS011;34830;44.064;12.566;2023-06-05T12:35:23;3.92;;;2.40;;
49015;SDS011;34830;44.064;12.566;2023-06-05T12:37:50;4.85;;;3.03;;
49015;SDS011;34830;44.064;12.566;2023-06-05T12:40:17;6.38;;;3.13;;
49015;SDS011;34830;44.064;12.566;2023-06-05T12:42:47;3.88;;;2.75;;
49015;SDS011;34830;44.064;12.566;2023-06-05T12:45:13;4.90;;;3.00;;
49015;SDS011;34830;44.064;12.566;2023-06-05T12:47:40;7.45;;;3.63;;
49015;SDS011;34830;44.064;12.566;2023-06-05T12:50:08;11.02;;;3.95;;
49015;SDS011;34830;44.064;12.566;2023-06-05T12:52:37;12.70;;;4.57;;
49015;SDS011;34830;44.064;12.566;2023-06-05T12:55:04;7.45;;;4.93;;
49015;SDS011;34830;44.064;12.566;2023-06-05T12:57:31;7.10;;;4.45;;
49015;SDS011;34830;44.064;12.566;2023-06-05T12:59:58;8.15;;;4.90;;
49015;SDS011;34830;44.064;12.566;2023-06-05T13:02:24;7.70;;;4.72;;
49015;SDS011;34830;44.064;12.566;2023-06-05T13:04:50;7.47;;;5.13;;
49015;SDS011;34830;44.064;12.566;2023-06-05T13:07:16;10.50;;;6.05;;
49015;SDS011;34830;44.064;12.566;2023-06-05T13:09:42;9.50;;;5.38;;
49015;SDS011;34830;44.064;12.566;2023-06-05T13:12:08;10.52;;;6.20;;
49015;SDS011;34830;44.064;12.566;2023-06-05T13:14:35;9.82;;;6.28;;
49015;SDS011;34830;44.064;12.566;2023-06-05T13:17:01;9.02;;;5.68;;
49015;SDS011;34830;44.064;12.566;2023-06-05T13:19:27;7.78;;;5.95;;
49015;SDS011;34830;44.064;12.566;2023-06-05T13:21:53;8.88;;;5.57;;
49015;SDS011;34830;44.064;12.566;2023-06-05T13:24:19;14.52;;;6.65;;
49015;SDS011;34830;44.064;12.566;2023-06-05T13:26:45;12.63;;;6.40;;
49015;SDS011;34830;44.064;12.566;2023-06-05T13:29:12;13.07;;;7.03;;
49015;SDS011;34830;44.064;12.566;2023-06-05T13:31:41;11.50;;;5.97;;
49015;SDS011;34830;44.064;12.566;2023-06-05T13:34:08;8.55;;;5.88;;
49015;SDS011;34830;44.064;12.566;2023-06-05T13:36:34;7.95;;;6.18;;
49015;SDS011;34830;44.064;12.566;2023-06-05T13:39:00;8.68;;;6.40;;
49015;SDS011;34830;44.064;12.566;2023-06-05T13:41:26;10.23;;;6.32;;
49015;SDS011;34830;44.064;12.566;2023-06-05T13:43:52;11.00;;;5.78;;
49015;SDS011;34830;44.064;12.566;2023-06-05T13:46:19;8.00;;;5.60;;
49015;SDS011;34830;44.064;12.566;2023-06-05T13:48:45;8.38;;;5.80;;
49015;SDS011;34830;44.064;12.566;2023-06-05T13:51:11;8.55;;;6.10;;
49015;SDS011;34830;44.064;12.566;2023-06-05T13:53:37;8.88;;;5.53;;
49015;SDS011;34830;44.064;12.566;2023-06-05T13:56:03;8.18;;;5.30;;
49015;SDS011;34830;44.064;12.566;2023-06-05T13:58:30;9.80;;;5.05;;
49015;SDS011;34830;44.064;12.566;2023-06-05T14:01:00;6.70;;;4.53;;
49015;SDS011;34830;44.064;12.566;2023-06-05T14:03:26;6.20;;;4.95;;
49015;SDS011;34830;44.064;12.566;2023-06-05T14:05:52;6.40;;;5.20;;
49015;SDS011;34830;44.064;12.566;2023-06-05T14:08:18;7.85;;;5.10;;
49015;SDS011;34830;44.064;12.566;2023-06-05T14:10:44;8.05;;;5.35;;
49015;SDS011;34830;44.064;12.566;2023-06-05T14:13:11;7.20;;;4.22;;
49015;SDS011;34830;44.064;12.566;2023-06-05T14:15:37;7.10;;;6.10;;
49015;SDS011;34830;44.064;12.566;2023-06-05T14:18:04;9.00;;;5.18;;
49015;SDS011;34830;44.064;12.566;2023-06-05T14:20:31;9.00;;;6.00;;
49015;SDS011;34830;44.064;12.566;2023-06-05T14:22:58;10.80;;;5.38;;
49015;SDS011;34830;44.064;12.566;2023-06-05T14:25:25;6.43;;;4.65;;
49015;SDS011;34830;44.064;12.566;2023-06-05T14:27:55;9.30;;;6.30;;
49015;SDS011;34830;44.064;12.566;2023-06-05T14:30:22;8.90;;;5.90;;
49015;SDS011;34830;44.064;12.566;2023-06-05T14:32:48;7.53;;;4.93;;
49015;SDS011;34830;44.064;12.566;2023-06-05T14:35:15;7.25;;;5.00;;
49015;SDS011;34830;44.064;12.566;2023-06-05T14:37:42;10.43;;;5.60;;
49015;SDS011;34830;44.064;12.566;2023-06-05T14:40:08;8.13;;;5.68;;
49015;SDS011;34830;44.064;12.566;2023-06-05T14:42:35;10.07;;;5.40;;
49015;SDS011;34830;44.064;12.566;2023-06-05T14:45:04;9.15;;;5.90;;
49015;SDS011;34830;44.064;12.566;2023-06-05T14:47:31;6.20;;;4.30;;
49015;SDS011;34830;44.064;12.566;2023-06-05T14:49:57;7.25;;;4.53;;
49015;SDS011;34830;44.064;12.566;2023-06-05T14:52:24;5.82;;;4.15;;
49015;SDS011;34830;44.064;12.566;2023-06-05T14:54:50;7.95;;;5.13;;
49015;SDS011;34830;44.064;12.566;2023-06-05T14:57:16;6.68;;;4.50;;
49015;SDS011;34830;44.064;12.566;2023-06-05T14:59:42;7.50;;;4.22;;
49015;SDS011;34830;44.064;12.566;2023-06-05T15:02:08;7.20;;;4.75;;
49015;SDS011;34830;44.064;12.566;2023-06-05T15:04:34;11.75;;;5.97;;
49015;SDS011;34830;44.064;12.566;2023-06-05T15:07:01;8.15;;;5.35;;
49015;SDS011;34830;44.064;12.566;2023-06-05T15:09:27;8.60;;;5.93;;
49015;SDS011;34830;44.064;12.566;2023-06-05T15:11:55;7.70;;;5.32;;
49015;SDS011;34830;44.064;12.566;2023-06-05T15:14:21;8.57;;;4.70;;
49015;SDS011;34830;44.064;12.566;2023-06-05T15:16:49;9.50;;;5.50;;